JM-0012 weather

CLOSED Braco Airfield
Cornwall County, Jamaica

Public forecast

Using degrees Celsius for public forecast. Weather courtesy of forecast.io.

METAR (pilot weather report)

Closest report is Sangster International Airport, 24.3 nm (44.9 km) W. Retrieved 2019/05/22 14:00 UTC (14 minutes ago):

MKJS 221400Z 07008KT 9999 FEW020 29/22 Q1013

TAF (pilot weather forecast)

Closest forecast is Sangster International Airport, 24.3 nm (44.9 km) W. Retrieved 2019/05/22 12:18 UTC (2 hours ago):

TAF MKJS 221115Z 2212/2312 06015KT 9999 FEW022 SCT036 TEMPO 2217/2223 8000 TSRA SCT018 SCT022CB BECMG 2301/2303 14005KT FEW022 FEW024CB